TVS3AM LGKR-LKPR
Flight info
| Callsign | TVS3AM |
|---|---|
| Flight time | 1h 50m |
| Altitude | 32000 |
| Route | OLGAT DCT GONOT DCT CRAYE DCT GISAM DCT SIPAL DCT UNIPA DCT PODET DCT NURMI DCT GAMLI DCT TIVAP DCT BUDEX DCT APRAQ |
| Aircraft | B738/M-SDE2E3FGHIRWXY/LB1 |
Departure
| Time | 2026-05-05 16:07 |
|---|---|
| Airport | Corfu Ioannis Kapodistrias International Airport (LGKR) |
Arrival
| Time | 2026-05-05 17:57 |
|---|---|
| Airport | Václav Havel Airport Prague (LKPR) |
| Time | Latitude | Longitude | Altitude | Speed | Heading |
|---|---|---|---|---|---|
| 2026-05-05 15:29 | 39.60705 | 19.91341 | 17 ft | 0 kts | 79° |
| 2026-05-05 15:58 | 39.60701 | 19.91316 | 19 ft | 4 kts | 78° |
| 2026-05-05 15:58 | 39.60696 | 19.91281 | 21 ft | 4 kts | 86° |
| 2026-05-05 15:58 | 39.60696 | 19.91247 | 21 ft | 4 kts | 102° |
| 2026-05-05 15:58 | 39.60706 | 19.91218 | 18 ft | 4 kts | 146° |
| 2026-05-05 15:59 | 39.60714 | 19.91212 | 19 ft | 1 kts | 168° |
| 2026-05-05 16:03 | 39.60691 | 19.91218 | 17 ft | 8 kts | 168° |
| 2026-05-05 16:03 | 39.60609 | 19.91225 | 17 ft | 14 kts | 200° |
| 2026-05-05 16:03 | 39.60531 | 19.91162 | 19 ft | 13 kts | 201° |
| 2026-05-05 16:03 | 39.60436 | 19.91155 | 18 ft | 16 kts | 175° |
| 2026-05-05 16:04 | 39.60293 | 19.91188 | 20 ft | 26 kts | 169° |
| 2026-05-05 16:04 | 39.60087 | 19.91239 | 20 ft | 35 kts | 168° |
| 2026-05-05 16:04 | 39.59819 | 19.91309 | 21 ft | 41 kts | 169° |
| 2026-05-05 16:04 | 39.59542 | 19.91380 | 17 ft | 39 kts | 168° |
| 2026-05-05 16:05 | 39.59311 | 19.91442 | 16 ft | 30 kts | 169° |
| 2026-05-05 16:05 | 39.59184 | 19.91508 | 16 ft | 14 kts | 165° |
| 2026-05-05 16:05 | 39.59181 | 19.91477 | 16 ft | 5 kts | 340° |
| 2026-05-05 16:05 | 39.59196 | 19.91473 | 16 ft | 0 kts | 348° |
| 2026-05-05 16:06 | 39.59303 | 19.91442 | 16 ft | 48 kts | 347° |
| 2026-05-05 16:06 | 39.59871 | 19.91298 | 23 ft | 117 kts | 348° |
| 2026-05-05 16:06 | 39.60871 | 19.91052 | 33 ft | 172 kts | 348° |
| 2026-05-05 16:07 | 39.62087 | 19.90779 | 695 ft | 178 kts | 347° |
| 2026-05-05 16:07 | 39.63316 | 19.90463 | 1504 ft | 182 kts | 347° |
| 2026-05-05 16:07 | 39.64578 | 19.89979 | 2062 ft | 203 kts | 328° |
| 2026-05-05 16:07 | 39.65533 | 19.88582 | 2509 ft | 214 kts | 290° |
| 2026-05-05 16:08 | 39.65742 | 19.86669 | 3127 ft | 218 kts | 268° |
| 2026-05-05 16:08 | 39.65718 | 19.84686 | 3834 ft | 222 kts | 268° |
| 2026-05-05 16:08 | 39.65686 | 19.82679 | 4664 ft | 222 kts | 268° |
| 2026-05-05 16:08 | 39.65662 | 19.80691 | 5423 ft | 226 kts | 272° |
| 2026-05-05 16:09 | 39.66154 | 19.78740 | 5988 ft | 239 kts | 306° |
| 2026-05-05 16:09 | 39.67331 | 19.77048 | 6269 ft | 266 kts | 314° |
| 2026-05-05 16:09 | 39.68655 | 19.75308 | 6876 ft | 276 kts | 315° |
| 2026-05-05 16:09 | 39.70012 | 19.73527 | 7702 ft | 278 kts | 314° |
| 2026-05-05 16:10 | 39.71368 | 19.71735 | 8564 ft | 278 kts | 314° |
| 2026-05-05 16:10 | 39.72725 | 19.69928 | 9409 ft | 281 kts | 314° |
| 2026-05-05 16:10 | 39.74100 | 19.68089 | 9911 ft | 284 kts | 314° |
| 2026-05-05 16:10 | 39.75485 | 19.66228 | 10121 ft | 289 kts | 314° |
| 2026-05-05 16:11 | 39.76883 | 19.64344 | 10106 ft | 289 kts | 314° |
| 2026-05-05 16:11 | 39.81182 | 19.58533 | 10752 ft | 324 kts | 314° |
| 2026-05-05 16:12 | 39.82798 | 19.56345 | 10970 ft | 345 kts | 314° |
| 2026-05-05 16:12 | 39.86191 | 19.51752 | 12290 ft | 355 kts | 314° |
| 2026-05-05 16:13 | 39.91403 | 19.44767 | 14372 ft | 366 kts | 313° |
| 2026-05-05 16:13 | 39.93198 | 19.42360 | 15133 ft | 366 kts | 313° |
| 2026-05-05 16:13 | 39.94974 | 19.39975 | 15836 ft | 367 kts | 313° |
| 2026-05-05 16:14 | 39.98520 | 19.35203 | 17212 ft | 370 kts | 313° |
| 2026-05-05 16:14 | 40.02116 | 19.30357 | 18534 ft | 374 kts | 313° |
| 2026-05-05 16:15 | 40.05746 | 19.25455 | 19669 ft | 377 kts | 313° |
| 2026-05-05 16:15 | 40.09392 | 19.20524 | 20836 ft | 379 kts | 313° |
| 2026-05-05 16:16 | 40.13067 | 19.15545 | 21909 ft | 383 kts | 313° |
| 2026-05-05 16:16 | 40.16784 | 19.10500 | 22924 ft | 387 kts | 313° |
| 2026-05-05 16:17 | 40.20548 | 19.05384 | 23825 ft | 393 kts | 313° |
| 2026-05-05 16:17 | 40.22445 | 19.02802 | 24247 ft | 394 kts | 313° |
| 2026-05-05 16:18 | 40.26795 | 18.98442 | 25049 ft | 403 kts | 332° |
| 2026-05-05 16:18 | 40.29352 | 18.96916 | 25462 ft | 404 kts | 332° |
| 2026-05-05 16:18 | 40.34516 | 18.93866 | 26177 ft | 409 kts | 332° |
| 2026-05-05 16:19 | 40.37081 | 18.92337 | 26531 ft | 411 kts | 332° |
| 2026-05-05 16:19 | 40.39685 | 18.90772 | 26891 ft | 413 kts | 332° |
| 2026-05-05 16:19 | 40.44925 | 18.87595 | 27543 ft | 418 kts | 331° |
| 2026-05-05 16:20 | 40.50225 | 18.84363 | 28237 ft | 421 kts | 330° |
| 2026-05-05 16:20 | 40.55542 | 18.81114 | 28927 ft | 423 kts | 330° |
| 2026-05-05 16:21 | 40.60895 | 18.77836 | 29576 ft | 425 kts | 330° |
| 2026-05-05 16:22 | 40.68919 | 18.72918 | 30788 ft | 421 kts | 329° |
| 2026-05-05 16:22 | 40.74199 | 18.69675 | 31511 ft | 418 kts | 329° |
| 2026-05-05 16:23 | 40.79476 | 18.66422 | 32134 ft | 418 kts | 329° |
| 2026-05-05 16:23 | 40.82104 | 18.64801 | 32530 ft | 415 kts | 329° |
| 2026-05-05 16:23 | 40.87317 | 18.61582 | 33182 ft | 413 kts | 329° |
| 2026-05-05 16:24 | 40.89920 | 18.59972 | 33519 ft | 412 kts | 329° |
| 2026-05-05 16:24 | 40.92515 | 18.58367 | 33914 ft | 410 kts | 329° |
| 2026-05-05 16:24 | 40.97666 | 18.55174 | 34423 ft | 409 kts | 329° |
| 2026-05-05 16:25 | 41.00249 | 18.53570 | 34661 ft | 409 kts | 329° |
| 2026-05-05 16:25 | 41.05389 | 18.50376 | 35184 ft | 408 kts | 329° |
| 2026-05-05 16:25 | 41.07965 | 18.48773 | 35390 ft | 408 kts | 329° |
| 2026-05-05 16:26 | 41.13105 | 18.45570 | 35877 ft | 406 kts | 329° |
| 2026-05-05 16:26 | 41.18207 | 18.42385 | 36058 ft | 409 kts | 329° |
| 2026-05-05 16:27 | 41.23368 | 18.39075 | 36049 ft | 406 kts | 325° |
| 2026-05-05 16:27 | 41.27932 | 18.34793 | 36051 ft | 400 kts | 319° |
| 2026-05-05 16:28 | 41.31646 | 18.31132 | 36062 ft | 399 kts | 319° |
| 2026-05-05 16:28 | 41.36850 | 18.26040 | 36057 ft | 399 kts | 320° |
| 2026-05-05 16:29 | 41.41323 | 18.21678 | 36058 ft | 399 kts | 320° |
| 2026-05-05 16:29 | 41.45800 | 18.17306 | 36058 ft | 399 kts | 320° |
| 2026-05-05 16:30 | 41.49524 | 18.13663 | 36056 ft | 399 kts | 320° |
| 2026-05-05 16:30 | 41.54101 | 18.09412 | 36055 ft | 402 kts | 322° |
| 2026-05-05 16:31 | 41.58788 | 18.05338 | 36067 ft | 402 kts | 322° |
| 2026-05-05 16:31 | 41.63477 | 18.01236 | 36051 ft | 403 kts | 322° |
| 2026-05-05 16:32 | 41.68159 | 17.97093 | 36050 ft | 403 kts | 321° |
| 2026-05-05 16:32 | 41.72832 | 17.92938 | 36048 ft | 403 kts | 321° |
| 2026-05-05 16:33 | 41.77500 | 17.88779 | 36051 ft | 403 kts | 321° |
| 2026-05-05 16:33 | 41.82171 | 17.84609 | 36053 ft | 403 kts | 321° |
| 2026-05-05 16:34 | 41.86810 | 17.80462 | 36041 ft | 403 kts | 321° |
| 2026-05-05 16:34 | 41.91282 | 17.76488 | 36045 ft | 405 kts | 324° |
| 2026-05-05 16:35 | 41.96448 | 17.73298 | 36031 ft | 411 kts | 332° |
| 2026-05-05 16:35 | 42.01762 | 17.70420 | 36040 ft | 411 kts | 332° |
| 2026-05-05 16:36 | 42.07074 | 17.67515 | 36045 ft | 413 kts | 332° |
| 2026-05-05 16:36 | 42.12397 | 17.64576 | 36051 ft | 414 kts | 332° |
| 2026-05-05 16:37 | 42.17746 | 17.61608 | 36051 ft | 417 kts | 332° |
| 2026-05-05 16:37 | 42.23113 | 17.58622 | 36051 ft | 418 kts | 332° |
| 2026-05-05 16:38 | 42.28521 | 17.55609 | 36052 ft | 420 kts | 332° |
| 2026-05-05 16:38 | 42.33941 | 17.52585 | 36048 ft | 422 kts | 332° |
| 2026-05-05 16:39 | 42.39335 | 17.49569 | 36045 ft | 423 kts | 332° |
| 2026-05-05 16:39 | 42.44768 | 17.46526 | 36042 ft | 423 kts | 332° |
| 2026-05-05 16:40 | 42.50192 | 17.43482 | 36055 ft | 422 kts | 332° |
| 2026-05-05 16:40 | 42.55613 | 17.40435 | 36039 ft | 421 kts | 332° |
| 2026-05-05 16:41 | 42.61021 | 17.37388 | 36041 ft | 420 kts | 332° |
| 2026-05-05 16:41 | 42.66415 | 17.34343 | 36045 ft | 419 kts | 332° |
| 2026-05-05 16:42 | 42.71797 | 17.31300 | 36052 ft | 418 kts | 332° |
| 2026-05-05 16:42 | 42.77173 | 17.28253 | 36037 ft | 418 kts | 332° |
| 2026-05-05 16:43 | 42.82542 | 17.25205 | 36052 ft | 418 kts | 332° |
| 2026-05-05 16:43 | 42.87916 | 17.22148 | 36057 ft | 418 kts | 332° |
| 2026-05-05 16:44 | 42.93292 | 17.19084 | 36067 ft | 418 kts | 332° |
| 2026-05-05 16:44 | 42.98666 | 17.16016 | 36042 ft | 419 kts | 332° |
| 2026-05-05 16:45 | 43.04032 | 17.12947 | 36048 ft | 418 kts | 332° |
| 2026-05-05 16:45 | 43.09409 | 17.09865 | 36050 ft | 419 kts | 332° |
| 2026-05-05 16:46 | 43.14780 | 17.06768 | 36061 ft | 419 kts | 331° |
| 2026-05-05 16:46 | 43.20021 | 17.03400 | 36043 ft | 419 kts | 329° |
| 2026-05-05 16:47 | 43.25272 | 16.99896 | 36047 ft | 419 kts | 329° |
| 2026-05-05 16:47 | 43.30526 | 16.96413 | 36056 ft | 420 kts | 329° |
| 2026-05-05 16:48 | 43.35814 | 16.92932 | 36064 ft | 421 kts | 330° |
| 2026-05-05 16:48 | 43.41117 | 16.89443 | 36056 ft | 423 kts | 330° |
| 2026-05-05 16:49 | 43.46424 | 16.85948 | 36059 ft | 423 kts | 330° |
| 2026-05-05 16:49 | 43.51699 | 16.82466 | 36060 ft | 423 kts | 330° |
| 2026-05-05 16:50 | 43.56970 | 16.78979 | 36054 ft | 423 kts | 330° |
| 2026-05-05 16:50 | 43.62270 | 16.75467 | 36064 ft | 422 kts | 330° |
| 2026-05-05 16:51 | 43.67563 | 16.71952 | 36052 ft | 422 kts | 330° |
| 2026-05-05 16:51 | 43.72837 | 16.68442 | 36047 ft | 421 kts | 330° |
| 2026-05-05 16:52 | 43.78105 | 16.64929 | 36089 ft | 421 kts | 330° |
| 2026-05-05 16:52 | 43.83390 | 16.61397 | 36076 ft | 422 kts | 330° |
| 2026-05-05 16:53 | 43.88692 | 16.57848 | 36069 ft | 424 kts | 330° |
| 2026-05-05 16:53 | 43.94020 | 16.54273 | 36076 ft | 426 kts | 330° |
| 2026-05-05 16:54 | 43.99375 | 16.50675 | 36071 ft | 429 kts | 330° |
| 2026-05-05 16:54 | 44.04883 | 16.47402 | 36060 ft | 436 kts | 340° |
| 2026-05-05 16:55 | 44.10746 | 16.45163 | 36058 ft | 438 kts | 341° |
| 2026-05-05 16:55 | 44.16605 | 16.42978 | 36050 ft | 438 kts | 340° |
| 2026-05-05 16:56 | 44.22488 | 16.40741 | 36049 ft | 438 kts | 340° |
| 2026-05-05 16:56 | 44.28395 | 16.38461 | 36045 ft | 437 kts | 340° |
| 2026-05-05 16:57 | 44.34213 | 16.36202 | 36039 ft | 436 kts | 340° |
| 2026-05-05 16:57 | 44.40057 | 16.33927 | 36038 ft | 435 kts | 340° |
| 2026-05-05 16:58 | 44.45879 | 16.31656 | 36028 ft | 434 kts | 340° |
| 2026-05-05 16:58 | 44.51690 | 16.29385 | 36031 ft | 433 kts | 340° |
| 2026-05-05 16:59 | 44.57498 | 16.27111 | 36023 ft | 433 kts | 340° |
| 2026-05-05 16:59 | 44.63296 | 16.24836 | 36030 ft | 433 kts | 340° |
| 2026-05-05 17:00 | 44.69097 | 16.22555 | 36009 ft | 433 kts | 340° |
| 2026-05-05 17:00 | 44.74892 | 16.20272 | 36010 ft | 433 kts | 340° |
| 2026-05-05 17:01 | 44.80693 | 16.17982 | 35998 ft | 433 kts | 340° |
| 2026-05-05 17:01 | 44.86494 | 16.15686 | 36001 ft | 433 kts | 340° |
| 2026-05-05 17:02 | 44.92267 | 16.13398 | 35996 ft | 433 kts | 340° |
| 2026-05-05 17:02 | 44.98075 | 16.11090 | 35994 ft | 434 kts | 340° |
| 2026-05-05 17:03 | 45.03878 | 16.08780 | 36008 ft | 434 kts | 340° |
| 2026-05-05 17:03 | 45.09700 | 16.06457 | 35994 ft | 435 kts | 340° |
| 2026-05-05 17:04 | 45.15530 | 16.04126 | 35994 ft | 435 kts | 340° |
| 2026-05-05 17:04 | 45.21360 | 16.01790 | 35988 ft | 436 kts | 340° |
| 2026-05-05 17:05 | 45.27204 | 15.99444 | 35998 ft | 436 kts | 340° |
| 2026-05-05 17:05 | 45.33053 | 15.97090 | 35989 ft | 437 kts | 340° |
| 2026-05-05 17:06 | 45.38917 | 15.94725 | 35987 ft | 438 kts | 340° |
| 2026-05-05 17:06 | 45.44783 | 15.92355 | 35990 ft | 438 kts | 340° |
| 2026-05-05 17:07 | 45.50653 | 15.89978 | 35978 ft | 439 kts | 340° |
| 2026-05-05 17:07 | 45.56480 | 15.87613 | 35978 ft | 438 kts | 340° |
| 2026-05-05 17:08 | 45.62351 | 15.85225 | 35979 ft | 438 kts | 340° |
| 2026-05-05 17:08 | 45.68218 | 15.82834 | 35970 ft | 438 kts | 340° |
| 2026-05-05 17:09 | 45.74085 | 15.80437 | 35966 ft | 439 kts | 340° |
| 2026-05-05 17:09 | 45.79957 | 15.78032 | 35967 ft | 439 kts | 340° |
| 2026-05-05 17:10 | 45.85830 | 15.75623 | 35970 ft | 439 kts | 340° |
| 2026-05-05 17:10 | 45.91707 | 15.73206 | 35973 ft | 439 kts | 340° |
| 2026-05-05 17:11 | 45.97581 | 15.70785 | 35965 ft | 439 kts | 340° |
| 2026-05-05 17:11 | 46.03461 | 15.68356 | 35962 ft | 439 kts | 340° |
| 2026-05-05 17:12 | 46.09330 | 15.65926 | 35971 ft | 439 kts | 340° |
| 2026-05-05 17:12 | 46.15208 | 15.63488 | 35966 ft | 439 kts | 340° |
| 2026-05-05 17:13 | 46.21066 | 15.60983 | 35957 ft | 439 kts | 339° |
| 2026-05-05 17:13 | 46.26904 | 15.58342 | 35955 ft | 439 kts | 339° |
| 2026-05-05 17:14 | 46.32710 | 15.55701 | 35951 ft | 440 kts | 339° |
| 2026-05-05 17:14 | 46.37606 | 15.53482 | 35937 ft | 440 kts | 339° |
| 2026-05-05 17:15 | 46.44407 | 15.50405 | 35938 ft | 441 kts | 339° |
| 2026-05-05 17:15 | 46.50261 | 15.47752 | 35944 ft | 441 kts | 339° |
| 2026-05-05 17:16 | 46.55164 | 15.45526 | 35940 ft | 441 kts | 339° |
| 2026-05-05 17:16 | 46.61027 | 15.42858 | 35928 ft | 441 kts | 339° |
| 2026-05-05 17:17 | 46.66851 | 15.40201 | 35920 ft | 442 kts | 339° |
| 2026-05-05 17:17 | 46.72715 | 15.37520 | 35897 ft | 442 kts | 339° |
| 2026-05-05 17:18 | 46.78588 | 15.34829 | 35888 ft | 443 kts | 339° |
| 2026-05-05 17:18 | 46.84473 | 15.32126 | 35887 ft | 443 kts | 339° |
| 2026-05-05 17:19 | 46.90367 | 15.29412 | 35889 ft | 444 kts | 339° |
| 2026-05-05 17:19 | 46.96264 | 15.26692 | 35888 ft | 445 kts | 338° |
| 2026-05-05 17:20 | 47.02175 | 15.23958 | 35885 ft | 445 kts | 339° |
| 2026-05-05 17:20 | 47.08085 | 15.21218 | 35886 ft | 446 kts | 339° |
| 2026-05-05 17:21 | 47.14015 | 15.18463 | 35848 ft | 447 kts | 339° |
| 2026-05-05 17:22 | 47.22920 | 15.14313 | 35865 ft | 448 kts | 339° |
| 2026-05-05 17:22 | 47.28863 | 15.11536 | 35860 ft | 449 kts | 339° |
| 2026-05-05 17:23 | 47.34829 | 15.08741 | 35844 ft | 450 kts | 339° |
| 2026-05-05 17:23 | 47.40760 | 15.05956 | 35841 ft | 450 kts | 339° |
| 2026-05-05 17:24 | 47.46727 | 15.03147 | 35845 ft | 451 kts | 339° |
| 2026-05-05 17:24 | 47.52709 | 15.00324 | 35818 ft | 451 kts | 339° |
| 2026-05-05 17:25 | 47.58689 | 14.97496 | 35799 ft | 451 kts | 338° |
| 2026-05-05 17:25 | 47.64677 | 14.94658 | 35803 ft | 451 kts | 339° |
| 2026-05-05 17:26 | 47.70536 | 14.91427 | 35796 ft | 448 kts | 333° |
| 2026-05-05 17:26 | 47.76204 | 14.87571 | 35797 ft | 447 kts | 332° |
| 2026-05-05 17:27 | 47.81875 | 14.83740 | 35769 ft | 447 kts | 333° |
| 2026-05-05 17:27 | 47.87555 | 14.79982 | 35739 ft | 447 kts | 333° |
| 2026-05-05 17:28 | 47.93287 | 14.76497 | 35745 ft | 448 kts | 338° |
| 2026-05-05 17:28 | 47.99238 | 14.73776 | 35717 ft | 449 kts | 340° |
| 2026-05-05 17:29 | 48.05220 | 14.71139 | 35721 ft | 448 kts | 340° |
| 2026-05-05 17:29 | 48.11174 | 14.68434 | 35722 ft | 447 kts | 340° |
| 2026-05-05 17:30 | 48.17124 | 14.65675 | 35727 ft | 447 kts | 339° |
| 2026-05-05 17:30 | 48.23072 | 14.62898 | 35718 ft | 448 kts | 339° |
| 2026-05-05 17:30 | 48.26047 | 14.61507 | 35459 ft | 452 kts | 339° |
| 2026-05-05 17:31 | 48.29071 | 14.60090 | 34936 ft | 454 kts | 340° |
| 2026-05-05 17:31 | 48.32078 | 14.58683 | 34437 ft | 452 kts | 340° |
| 2026-05-05 17:31 | 48.35067 | 14.57284 | 34037 ft | 447 kts | 340° |
| 2026-05-05 17:31 | 48.38031 | 14.55895 | 33602 ft | 444 kts | 340° |
| 2026-05-05 17:32 | 48.40969 | 14.54515 | 33116 ft | 442 kts | 340° |
| 2026-05-05 17:32 | 48.43891 | 14.53141 | 32674 ft | 438 kts | 340° |
| 2026-05-05 17:32 | 48.46793 | 14.51775 | 32242 ft | 435 kts | 340° |
| 2026-05-05 17:32 | 48.49670 | 14.50418 | 31827 ft | 432 kts | 340° |
| 2026-05-05 17:33 | 48.52523 | 14.49071 | 31423 ft | 429 kts | 340° |
| 2026-05-05 17:33 | 48.55326 | 14.47746 | 31018 ft | 426 kts | 340° |
| 2026-05-05 17:33 | 48.58181 | 14.46394 | 30608 ft | 423 kts | 340° |
| 2026-05-05 17:33 | 48.60954 | 14.45080 | 30224 ft | 421 kts | 340° |
| 2026-05-05 17:34 | 48.63743 | 14.43757 | 29816 ft | 419 kts | 340° |
| 2026-05-05 17:34 | 48.66517 | 14.42439 | 29363 ft | 417 kts | 340° |
| 2026-05-05 17:34 | 48.69289 | 14.41122 | 28908 ft | 414 kts | 340° |
| 2026-05-05 17:34 | 48.72027 | 14.39819 | 28481 ft | 412 kts | 340° |
| 2026-05-05 17:35 | 48.74806 | 14.38723 | 27926 ft | 414 kts | 346° |
| 2026-05-05 17:35 | 48.77647 | 14.37951 | 27440 ft | 413 kts | 349° |
| 2026-05-05 17:35 | 48.80474 | 14.37277 | 27015 ft | 411 kts | 349° |
| 2026-05-05 17:35 | 48.83287 | 14.36604 | 26598 ft | 408 kts | 349° |
| 2026-05-05 17:36 | 48.86078 | 14.35907 | 26193 ft | 405 kts | 348° |
| 2026-05-05 17:36 | 48.88850 | 14.35186 | 25794 ft | 402 kts | 348° |
| 2026-05-05 17:36 | 48.91601 | 14.34457 | 25408 ft | 400 kts | 348° |
| 2026-05-05 17:36 | 48.94339 | 14.33727 | 25011 ft | 398 kts | 348° |
| 2026-05-05 17:37 | 48.97057 | 14.32968 | 24611 ft | 396 kts | 347° |
| 2026-05-05 17:37 | 48.99714 | 14.32175 | 24230 ft | 394 kts | 347° |
| 2026-05-05 17:37 | 49.02407 | 14.31352 | 23828 ft | 393 kts | 347° |
| 2026-05-05 17:37 | 49.05082 | 14.30531 | 23438 ft | 391 kts | 347° |
| 2026-05-05 17:38 | 49.07752 | 14.29714 | 22987 ft | 391 kts | 347° |
| 2026-05-05 17:38 | 49.10407 | 14.28904 | 22562 ft | 388 kts | 347° |
| 2026-05-05 17:38 | 49.13052 | 14.28100 | 22153 ft | 386 kts | 347° |
| 2026-05-05 17:38 | 49.15684 | 14.27302 | 21777 ft | 383 kts | 347° |
| 2026-05-05 17:39 | 49.18286 | 14.26512 | 21374 ft | 381 kts | 347° |
| 2026-05-05 17:39 | 49.20883 | 14.25724 | 20988 ft | 379 kts | 347° |
| 2026-05-05 17:39 | 49.23460 | 14.24941 | 20606 ft | 377 kts | 347° |
| 2026-05-05 17:39 | 49.26022 | 14.24161 | 20227 ft | 375 kts | 347° |
| 2026-05-05 17:40 | 49.28574 | 14.23384 | 19859 ft | 373 kts | 346° |
| 2026-05-05 17:40 | 49.31113 | 14.22610 | 19477 ft | 371 kts | 346° |
| 2026-05-05 17:40 | 49.33645 | 14.21837 | 19106 ft | 369 kts | 346° |
| 2026-05-05 17:40 | 49.36161 | 14.21069 | 18735 ft | 368 kts | 346° |
| 2026-05-05 17:41 | 49.38626 | 14.20315 | 18367 ft | 366 kts | 346° |
| 2026-05-05 17:41 | 49.41119 | 14.19552 | 17968 ft | 365 kts | 346° |
| 2026-05-05 17:41 | 49.43611 | 14.18787 | 17566 ft | 364 kts | 346° |
| 2026-05-05 17:41 | 49.46095 | 14.18025 | 17166 ft | 362 kts | 347° |
| 2026-05-05 17:42 | 49.48556 | 14.17269 | 16793 ft | 359 kts | 347° |
| 2026-05-05 17:42 | 49.50997 | 14.16519 | 16415 ft | 357 kts | 347° |
| 2026-05-05 17:42 | 49.53422 | 14.15758 | 16071 ft | 354 kts | 346° |
| 2026-05-05 17:42 | 49.55822 | 14.14976 | 15762 ft | 350 kts | 346° |
| 2026-05-05 17:43 | 49.58193 | 14.14193 | 15414 ft | 348 kts | 346° |
| 2026-05-05 17:43 | 49.60551 | 14.13410 | 15046 ft | 346 kts | 346° |
| 2026-05-05 17:43 | 49.62894 | 14.12633 | 14693 ft | 344 kts | 346° |
| 2026-05-05 17:43 | 49.65231 | 14.11858 | 14358 ft | 342 kts | 346° |
| 2026-05-05 17:44 | 49.67553 | 14.11088 | 14017 ft | 340 kts | 347° |
| 2026-05-05 17:44 | 49.69868 | 14.10320 | 13699 ft | 339 kts | 347° |
| 2026-05-05 17:44 | 49.72164 | 14.09558 | 13341 ft | 337 kts | 347° |
| 2026-05-05 17:44 | 49.74450 | 14.08800 | 12962 ft | 336 kts | 347° |
| 2026-05-05 17:45 | 49.76731 | 14.08042 | 12621 ft | 333 kts | 347° |
| 2026-05-05 17:45 | 49.78990 | 14.07291 | 12272 ft | 332 kts | 347° |
| 2026-05-05 17:45 | 49.81248 | 14.06540 | 11891 ft | 331 kts | 346° |
| 2026-05-05 17:45 | 49.83476 | 14.05799 | 11687 ft | 324 kts | 346° |
| 2026-05-05 17:46 | 49.85651 | 14.05074 | 11607 ft | 314 kts | 346° |
| 2026-05-05 17:46 | 49.87746 | 14.04376 | 11529 ft | 304 kts | 346° |
| 2026-05-05 17:46 | 49.89783 | 14.03697 | 11345 ft | 295 kts | 346° |
| 2026-05-05 17:46 | 49.91786 | 14.03027 | 10878 ft | 294 kts | 346° |
| 2026-05-05 17:47 | 49.93792 | 14.02354 | 10404 ft | 294 kts | 346° |
| 2026-05-05 17:47 | 49.95787 | 14.01686 | 9970 ft | 293 kts | 346° |
| 2026-05-05 17:47 | 49.97774 | 14.01019 | 9568 ft | 290 kts | 346° |
| 2026-05-05 17:47 | 49.99743 | 14.00359 | 9113 ft | 289 kts | 346° |
| 2026-05-05 17:48 | 50.01695 | 13.99702 | 8693 ft | 286 kts | 346° |
| 2026-05-05 17:48 | 50.03629 | 13.99052 | 8264 ft | 283 kts | 346° |
| 2026-05-05 17:48 | 50.05565 | 13.98401 | 7696 ft | 287 kts | 347° |
| 2026-05-05 17:48 | 50.07509 | 13.97746 | 7322 ft | 283 kts | 348° |
| 2026-05-05 17:49 | 50.09422 | 13.97102 | 6930 ft | 280 kts | 348° |
| 2026-05-05 17:49 | 50.11295 | 13.96471 | 6605 ft | 276 kts | 349° |
| 2026-05-05 17:49 | 50.13123 | 13.95847 | 6476 ft | 262 kts | 347° |
| 2026-05-05 17:49 | 50.14699 | 13.94597 | 6360 ft | 250 kts | 316° |
| 2026-05-05 17:50 | 50.15842 | 13.92606 | 6306 ft | 250 kts | 306° |
| 2026-05-05 17:50 | 50.17105 | 13.90629 | 6202 ft | 264 kts | 333° |
| 2026-05-05 17:50 | 50.18876 | 13.90081 | 6077 ft | 261 kts | 12° |
| 2026-05-05 17:50 | 50.20480 | 13.91167 | 5929 ft | 248 kts | 39° |
| 2026-05-05 17:51 | 50.21855 | 13.92783 | 5673 ft | 247 kts | 40° |
| 2026-05-05 17:51 | 50.23183 | 13.94473 | 5410 ft | 245 kts | 51° |
| 2026-05-05 17:51 | 50.23854 | 13.96811 | 5128 ft | 236 kts | 90° |
| 2026-05-05 17:51 | 50.23430 | 13.99201 | 4910 ft | 231 kts | 127° |
| 2026-05-05 17:52 | 50.22294 | 14.00956 | 4720 ft | 227 kts | 135° |
| 2026-05-05 17:52 | 50.21285 | 14.02799 | 4475 ft | 220 kts | 125° |
| 2026-05-05 17:52 | 50.20399 | 14.04693 | 4273 ft | 212 kts | 124° |
| 2026-05-05 17:52 | 50.19538 | 14.06483 | 3991 ft | 206 kts | 124° |
| 2026-05-05 17:53 | 50.18686 | 14.08238 | 3733 ft | 201 kts | 123° |
| 2026-05-05 17:53 | 50.17863 | 14.09935 | 3489 ft | 190 kts | 123° |
| 2026-05-05 17:53 | 50.17088 | 14.11535 | 3235 ft | 179 kts | 122° |
| 2026-05-05 17:53 | 50.16359 | 14.13041 | 2998 ft | 170 kts | 121° |
| 2026-05-05 17:54 | 50.15658 | 14.14491 | 2787 ft | 167 kts | 121° |
| 2026-05-05 17:54 | 50.14955 | 14.15945 | 2562 ft | 166 kts | 121° |
| 2026-05-05 17:54 | 50.14275 | 14.17346 | 2341 ft | 159 kts | 121° |
| 2026-05-05 17:54 | 50.13622 | 14.18696 | 2150 ft | 153 kts | 120° |
| 2026-05-05 17:55 | 50.12981 | 14.20024 | 1952 ft | 152 kts | 121° |
| 2026-05-05 17:55 | 50.12354 | 14.21312 | 1703 ft | 147 kts | 125° |
| 2026-05-05 17:55 | 50.11736 | 14.22538 | 1584 ft | 136 kts | 124° |
| 2026-05-05 17:55 | 50.11227 | 14.23659 | 1414 ft | 122 kts | 124° |
| 2026-05-05 17:56 | 50.10738 | 14.24667 | 1193 ft | 113 kts | 125° |
| 2026-05-05 17:56 | 50.10301 | 14.25588 | 1184 ft | 95 kts | 127° |
| 2026-05-05 17:56 | 50.09961 | 14.26275 | 1201 ft | 70 kts | 127° |
| 2026-05-05 17:56 | 50.09716 | 14.26794 | 1216 ft | 55 kts | 127° |
| 2026-05-05 17:57 | 50.09492 | 14.27264 | 1214 ft | 44 kts | 126° |
| 2026-05-05 17:57 | 50.09460 | 14.27488 | 1216 ft | 20 kts | 43° |
| 2026-05-05 17:57 | 50.09550 | 14.27587 | 1210 ft | 9 kts | 36° |
| 2026-05-05 17:57 | 50.09564 | 14.27603 | 1209 ft | 2 kts | 36° |
| 2026-05-05 17:58 | 50.09591 | 14.27632 | 1208 ft | 9 kts | 29° |
| 2026-05-05 17:58 | 50.09676 | 14.27585 | 1206 ft | 16 kts | 316° |
| 2026-05-05 17:58 | 50.09763 | 14.27451 | 1205 ft | 19 kts | 315° |
| 2026-05-05 17:58 | 50.09854 | 14.27313 | 1204 ft | 18 kts | 316° |
| 2026-05-05 17:59 | 50.09929 | 14.27161 | 1205 ft | 17 kts | 306° |
| 2026-05-05 17:59 | 50.10001 | 14.27009 | 1203 ft | 18 kts | 307° |
| 2026-05-05 17:59 | 50.10078 | 14.26850 | 1200 ft | 19 kts | 307° |
| 2026-05-05 17:59 | 50.10162 | 14.26677 | 1196 ft | 21 kts | 307° |
| 2026-05-05 18:00 | 50.10246 | 14.26504 | 1194 ft | 20 kts | 307° |
| 2026-05-05 18:00 | 50.10332 | 14.26325 | 1190 ft | 21 kts | 307° |
| 2026-05-05 18:00 | 50.10410 | 14.26163 | 1187 ft | 19 kts | 307° |
| 2026-05-05 18:00 | 50.10470 | 14.26038 | 1184 ft | 10 kts | 307° |
| 2026-05-05 18:01 | 50.10528 | 14.25984 | 1182 ft | 11 kts | 7° |
| 2026-05-05 18:01 | 50.10566 | 14.26006 | 1179 ft | 2 kts | 29° |
| 2026-05-05 18:01 | 50.10579 | 14.26090 | 1176 ft | 15 kts | 109° |
| 2026-05-05 18:01 | 50.10535 | 14.26231 | 1176 ft | 14 kts | 111° |
| 2026-05-05 18:02 | 50.10485 | 14.26361 | 1175 ft | 14 kts | 124° |
| 2026-05-05 18:02 | 50.10426 | 14.26489 | 1176 ft | 14 kts | 133° |
| 2026-05-05 18:02 | 50.10367 | 14.26606 | 1176 ft | 11 kts | 126° |
| 2026-05-05 18:02 | 50.10369 | 14.26664 | 1177 ft | 6 kts | 45° |
| 2026-05-05 18:03 | 50.10386 | 14.26684 | 1177 ft | 0 kts | 34° |